createdAt,value
2023-01-28T00:00:37.846Z,12.22
2023-01-28T00:03:04.360Z,12.07
2023-01-28T00:05:31.181Z,11.87
2023-01-28T00:07:58.247Z,11.73
2023-01-28T00:10:24.730Z,11.73
2023-01-28T00:12:51.247Z,11.86
2023-01-28T00:15:17.852Z,11.80
2023-01-28T00:17:44.409Z,11.70
2023-01-28T00:20:11.369Z,11.70
2023-01-28T00:22:37.965Z,11.75
2023-01-28T00:25:05.117Z,11.75
2023-01-28T00:27:31.616Z,11.71
2023-01-28T00:29:58.103Z,11.74
2023-01-28T00:32:24.601Z,11.78
2023-01-28T00:34:52.773Z,11.98
2023-01-28T00:37:19.348Z,11.89
2023-01-28T00:39:45.849Z,11.91
2023-01-28T00:42:12.427Z,11.94
2023-01-28T00:44:38.913Z,11.90
2023-01-28T00:47:05.416Z,11.81
2023-01-28T00:49:32.284Z,11.80
2023-01-28T00:51:58.779Z,11.64
2023-01-28T00:54:25.409Z,11.81
2023-01-28T00:56:53.509Z,11.57
2023-01-28T00:59:20.332Z,11.58
2023-01-28T01:01:47.573Z,11.64
2023-01-28T01:04:14.089Z,11.59
2023-01-28T01:06:41.026Z,11.58
2023-01-28T01:09:11.632Z,11.05
2023-01-28T01:11:39.823Z,11.27
2023-01-28T01:14:06.946Z,11.44
2023-01-28T01:16:35.285Z,11.64
2023-01-28T01:19:03.091Z,11.58
2023-01-28T01:21:30.822Z,11.46
2023-01-28T01:23:58.572Z,12.78
2023-01-28T01:26:27.603Z,14.31
2023-01-28T01:28:54.288Z,13.62
2023-01-28T01:31:22.717Z,12.73
2023-01-28T01:33:51.334Z,12.87
2023-01-28T01:36:19.926Z,13.33
2023-01-28T01:38:46.836Z,13.02
2023-01-28T01:41:32.201Z,13.72
2023-01-28T01:44:01.774Z,13.39
2023-01-28T01:46:34.375Z,16.62
2023-01-28T01:49:12.215Z,15.45
2023-01-28T01:51:39.582Z,14.05
2023-01-28T01:54:06.960Z,13.34
2023-01-28T01:56:38.529Z,13.62
2023-01-28T01:59:09.792Z,12.94
2023-01-28T02:01:36.382Z,12.69
2023-01-28T02:04:12.762Z,12.72
2023-01-28T02:06:40.848Z,12.69
2023-01-28T02:09:23.948Z,12.70
2023-01-28T02:11:54.102Z,12.71
2023-01-28T02:14:30.947Z,12.86
2023-01-28T02:17:01.455Z,12.79
2023-01-28T02:19:37.434Z,12.60
2023-01-28T02:22:36.113Z,12.58
2023-01-28T02:25:12.221Z,12.83
2023-01-28T02:28:18.479Z,12.87
2023-01-28T02:30:55.724Z,12.70
2023-01-28T02:33:48.745Z,12.59
2023-01-28T02:36:29.482Z,12.56
2023-01-28T02:39:01.813Z,12.82
2023-01-28T02:41:37.933Z,15.16
2023-01-28T02:44:05.243Z,14.54
2023-01-28T02:46:50.353Z,14.68
2023-01-28T02:49:36.861Z,14.91
2023-01-28T02:52:12.839Z,15.81
2023-01-28T02:54:39.265Z,15.58
2023-01-28T02:57:23.867Z,16.14
2023-01-28T03:00:11.910Z,16.26
2023-01-28T03:02:54.324Z,16.56
2023-01-28T03:05:42.298Z,17.77
2023-01-28T03:08:30.030Z,16.27
2023-01-28T03:11:17.440Z,16.65
2023-01-28T03:14:04.282Z,17.40
2023-01-28T03:16:52.509Z,17.17
2023-01-28T03:19:38.457Z,17.50
2023-01-28T03:22:24.529Z,18.12
2023-01-28T03:25:11.445Z,18.78
2023-01-28T03:27:56.785Z,19.81
2023-01-28T03:30:53.102Z,17.82
2023-01-28T03:33:49.032Z,17.93
2023-01-28T03:36:35.017Z,18.12
2023-01-28T03:39:02.256Z,17.39
2023-01-28T03:41:28.770Z,17.71
2023-01-28T03:43:58.614Z,18.03
2023-01-28T03:46:26.048Z,19.68
2023-01-28T03:48:53.129Z,19.31
2023-01-28T03:51:20.144Z,19.43
2023-01-28T03:53:46.962Z,19.26
2023-01-28T03:56:18.222Z,18.69
2023-01-28T03:58:53.957Z,18.78
2023-01-28T04:01:21.510Z,18.86
2023-01-28T04:03:49.131Z,18.63
2023-01-28T04:06:21.605Z,18.12
2023-01-28T04:08:59.185Z,14.80
2023-01-28T04:11:38.037Z,12.07
2023-01-28T04:14:05.926Z,11.38
2023-01-28T04:16:42.646Z,10.74
2023-01-28T04:19:10.732Z,10.75
2023-01-28T04:21:37.310Z,10.86
2023-01-28T04:24:05.064Z,11.17
2023-01-28T04:26:32.030Z,10.76
2023-01-28T04:28:58.737Z,14.06
2023-01-28T04:31:25.905Z,12.94
2023-01-28T04:34:20.374Z,12.50
2023-01-28T04:37:06.813Z,12.12
2023-01-28T04:40:02.424Z,11.79
2023-01-28T04:42:43.098Z,11.97
2023-01-28T04:45:35.756Z,11.23
2023-01-28T04:48:20.858Z,12.75
2023-01-28T04:51:05.340Z,16.86
2023-01-28T04:53:40.256Z,17.66
2023-01-28T04:56:22.842Z,17.69
2023-01-28T04:58:49.399Z,17.49
2023-01-28T05:01:16.859Z,18.38
2023-01-28T05:03:43.413Z,19.94
2023-01-28T05:06:16.763Z,20.15
2023-01-28T05:08:46.287Z,19.55
2023-01-28T05:11:13.931Z,16.77
2023-01-28T05:13:40.915Z,14.28
2023-01-28T05:16:09.871Z,13.53
2023-01-28T05:18:36.717Z,12.53
2023-01-28T05:21:14.443Z,12.27
2023-01-28T05:23:42.726Z,12.02
2023-01-28T05:26:09.513Z,12.01
2023-01-28T05:28:36.366Z,11.82
2023-01-28T05:31:04.217Z,11.66
2023-01-28T05:33:30.983Z,14.19
2023-01-28T05:35:57.640Z,12.61
2023-01-28T05:38:24.231Z,15.99
2023-01-28T05:40:51.312Z,16.77
2023-01-28T05:43:17.944Z,17.89
2023-01-28T05:46:00.827Z,17.57
2023-01-28T05:48:33.729Z,18.62
2023-01-28T05:51:06.010Z,18.25
2023-01-28T05:53:37.717Z,17.77
2023-01-28T05:56:04.514Z,17.15
2023-01-28T05:58:32.557Z,17.05
2023-01-28T06:01:02.402Z,17.32
2023-01-28T06:03:37.117Z,17.98
2023-01-28T06:06:03.947Z,17.42
2023-01-28T06:08:31.635Z,17.76
2023-01-28T06:10:59.293Z,17.56
2023-01-28T06:13:26.690Z,16.65
2023-01-28T06:16:16.353Z,18.37
2023-01-28T06:18:52.261Z,17.10
2023-01-28T06:21:19.080Z,15.32
2023-01-28T06:23:46.129Z,15.80
2023-01-28T06:26:13.529Z,15.36
2023-01-28T06:28:43.512Z,14.43
2023-01-28T06:31:10.041Z,14.53
2023-01-28T06:33:36.603Z,13.83
2023-01-28T06:36:04.266Z,14.47
2023-01-28T06:38:30.820Z,15.30
2023-01-28T06:40:58.148Z,16.31
2023-01-28T06:43:28.432Z,17.00
2023-01-28T06:45:55.209Z,16.44
2023-01-28T06:48:21.858Z,14.75
2023-01-28T06:50:48.985Z,13.04
2023-01-28T06:53:17.105Z,11.97
2023-01-28T06:55:44.174Z,11.72
2023-01-28T06:58:10.908Z,11.99
2023-01-28T07:00:37.804Z,11.61
2023-01-28T07:03:08.422Z,11.50
2023-01-28T07:05:37.885Z,11.45
2023-01-28T07:08:04.829Z,11.44
2023-01-28T07:10:33.976Z,11.34
2023-01-28T07:13:00.974Z,11.19
2023-01-28T07:15:30.347Z,11.10
2023-01-28T07:17:59.819Z,11.56
2023-01-28T07:20:26.848Z,11.44
2023-01-28T07:22:55.058Z,11.17
2023-01-28T07:25:31.978Z,11.49
2023-01-28T07:28:00.122Z,11.82
2023-01-28T07:30:30.658Z,11.84
2023-01-28T07:33:02.001Z,12.37
2023-01-28T07:35:31.452Z,11.98
2023-01-28T07:38:02.827Z,12.68
2023-01-28T07:40:30.349Z,13.27
2023-01-28T07:42:59.667Z,13.21
2023-01-28T07:48:47.870Z,11.44
2023-01-28T07:51:14.751Z,12.73
2023-01-28T07:53:50.106Z,14.90
2023-01-28T07:56:18.605Z,13.48
2023-01-28T07:58:45.860Z,12.86
2023-01-28T08:01:13.877Z,12.34
2023-01-28T08:03:40.637Z,12.30
2023-01-28T08:06:09.819Z,12.08
2023-01-28T08:08:44.874Z,11.65
2023-01-28T08:11:14.049Z,11.73
2023-01-28T08:13:48.041Z,11.67
2023-01-28T08:16:58.621Z,11.79
2023-01-28T08:19:26.168Z,11.85
2023-01-28T08:21:53.115Z,11.70
2023-01-28T08:24:29.128Z,11.70
2023-01-28T08:26:58.573Z,11.72
2023-01-28T08:29:28.153Z,11.67
2023-01-28T08:32:10.092Z,11.39
2023-01-28T08:34:36.973Z,11.10
2023-01-28T08:37:05.914Z,10.95
2023-01-28T08:39:32.733Z,10.78
2023-01-28T08:41:59.422Z,10.93
2023-01-28T08:44:26.095Z,11.08
2023-01-28T08:46:52.948Z,11.12
2023-01-28T08:49:25.068Z,11.13
2023-01-28T08:51:52.226Z,11.16
2023-01-28T08:54:19.444Z,11.07
2023-01-28T08:56:49.520Z,10.99
2023-01-28T08:59:16.613Z,10.59
2023-01-28T09:01:43.900Z,10.12
2023-01-28T09:04:13.388Z,10.44
2023-01-28T09:06:40.259Z,10.87
2023-01-28T09:09:12.164Z,11.30
2023-01-28T09:11:41.702Z,11.28
2023-01-28T09:14:08.741Z,11.40
2023-01-28T09:16:47.168Z,11.68
2023-01-28T09:19:17.236Z,11.80
2023-01-28T09:21:47.171Z,11.78
2023-01-28T09:24:17.121Z,13.05
2023-01-28T09:26:44.673Z,12.14
2023-01-28T09:29:16.867Z,12.15
2023-01-28T09:31:43.822Z,12.31
2023-01-28T09:34:10.981Z,12.25
2023-01-28T09:36:44.000Z,11.65
2023-01-28T09:39:10.955Z,12.18
2023-01-28T09:42:02.371Z,12.07
2023-01-28T09:45:00.542Z,11.89
2023-01-28T09:47:45.219Z,13.37
2023-01-28T09:50:27.657Z,15.25
2023-01-28T09:53:24.538Z,14.04
2023-01-28T09:55:57.762Z,15.03
2023-01-28T09:58:33.573Z,13.59
2023-01-28T10:01:59.047Z,16.48
2023-01-28T10:05:16.881Z,14.98
2023-01-28T10:08:41.786Z,15.85
2023-01-28T10:18:16.606Z,15.57
2023-01-28T10:21:40.916Z,17.09
2023-01-28T10:25:12.735Z,17.68
2023-01-28T10:28:59.922Z,20.69
2023-01-28T10:37:10.279Z,22.21
2023-01-28T10:40:00.858Z,22.52
2023-01-28T10:43:05.835Z,22.09
2023-01-28T10:45:42.508Z,24.32
2023-01-28T10:48:20.411Z,26.00
2023-01-28T10:51:00.215Z,27.94
2023-01-28T10:53:43.833Z,29.51
2023-01-28T10:56:15.879Z,29.29
2023-01-28T10:58:58.793Z,25.62
2023-01-28T11:01:37.912Z,23.62
2023-01-28T11:04:04.724Z,23.56
2023-01-28T11:06:36.219Z,23.28
2023-01-28T11:09:03.040Z,25.52
2023-01-28T11:11:30.677Z,23.13
2023-01-28T11:14:00.423Z,23.16
2023-01-28T11:16:32.061Z,22.11
2023-01-28T11:19:07.016Z,23.42
2023-01-28T11:21:35.489Z,23.46
2023-01-28T11:24:24.271Z,21.57
2023-01-28T11:26:56.490Z,19.81
2023-01-28T11:29:40.442Z,22.11
2023-01-28T11:32:33.179Z,22.74
2023-01-28T11:35:48.851Z,22.21
2023-01-28T11:38:26.004Z,21.66
2023-01-28T11:41:06.209Z,20.98
2023-01-28T11:44:06.137Z,19.95
2023-01-28T11:46:56.511Z,18.50
2023-01-28T11:53:40.469Z,18.91
2023-01-28T12:06:04.036Z,17.79
2023-01-28T12:09:16.557Z,15.88
2023-01-28T12:12:30.770Z,15.00
2023-01-28T12:15:26.846Z,15.00
2023-01-28T12:18:27.405Z,18.60
2023-01-28T12:21:11.327Z,15.93
2023-01-28T12:23:56.395Z,15.14
2023-01-28T12:26:49.123Z,14.95
2023-01-28T12:29:26.251Z,15.19
2023-01-28T12:32:13.421Z,15.88
2023-01-28T12:34:52.379Z,16.13
2023-01-28T12:37:40.790Z,16.40
2023-01-28T12:40:40.130Z,16.87
2023-01-28T12:43:18.838Z,18.17
2023-01-28T12:46:00.757Z,17.72
2023-01-28T12:48:38.266Z,18.05
2023-01-28T12:51:15.465Z,18.39
2023-01-28T12:54:08.960Z,18.07
2023-01-28T12:56:42.090Z,17.89
2023-01-28T12:59:17.097Z,17.93
2023-01-28T13:02:11.608Z,18.60
2023-01-28T13:04:51.333Z,19.51
2023-01-28T13:07:25.668Z,17.86
2023-01-28T13:10:00.120Z,17.74
2023-01-28T13:12:27.079Z,17.54
2023-01-28T13:14:54.374Z,17.65
2023-01-28T13:17:33.311Z,17.84
2023-01-28T13:20:00.127Z,17.51
2023-01-28T13:22:35.144Z,16.84
2023-01-28T13:25:20.401Z,16.91
2023-01-28T13:28:02.176Z,16.42
2023-01-28T13:30:31.957Z,17.04
2023-01-28T13:33:04.885Z,16.09
2023-01-28T13:35:37.706Z,16.39
2023-01-28T13:38:15.063Z,15.58
2023-01-28T13:40:41.886Z,17.33
2023-01-28T13:43:39.441Z,16.50
2023-01-28T13:46:26.048Z,16.37
2023-01-28T13:48:56.109Z,18.81
2023-01-28T13:51:27.102Z,19.15
2023-01-28T13:54:13.956Z,16.57
2023-01-28T13:56:59.130Z,15.43
2023-01-28T13:59:37.882Z,14.34
2023-01-28T14:02:30.378Z,18.88
2023-01-28T14:05:18.678Z,17.43
2023-01-28T14:08:20.794Z,17.11
2023-01-28T14:11:16.557Z,15.81
2023-01-28T14:14:15.075Z,15.99
2023-01-28T14:16:52.215Z,17.06
2023-01-28T14:19:27.451Z,18.25
2023-01-28T14:21:54.621Z,17.77
2023-01-28T14:24:21.446Z,17.28
2023-01-28T14:27:05.142Z,14.97
2023-01-28T14:29:49.052Z,18.94
2023-01-28T14:32:24.322Z,19.13
2023-01-28T14:34:51.093Z,18.90
2023-01-28T14:37:24.952Z,17.98
2023-01-28T14:40:11.644Z,18.15
2023-01-28T14:42:45.403Z,18.08
2023-01-28T14:45:50.805Z,18.73
2023-01-28T14:48:20.505Z,18.87
2023-01-28T14:50:58.876Z,19.34
2023-01-28T14:53:46.343Z,19.35
2023-01-28T14:56:13.021Z,18.81
2023-01-28T14:58:44.706Z,19.91
2023-01-28T15:01:29.220Z,19.48
2023-01-28T15:03:56.155Z,19.72
2023-01-28T15:06:24.811Z,19.91
2023-01-28T15:08:53.294Z,16.05
2023-01-28T15:11:25.863Z,15.13
2023-01-28T15:13:58.210Z,13.62
2023-01-28T15:16:31.493Z,13.60
2023-01-28T15:19:01.275Z,15.76
2023-01-28T15:21:30.052Z,16.16
2023-01-28T15:23:58.510Z,17.36
2023-01-28T15:26:31.486Z,16.81
2023-01-28T15:28:58.353Z,15.06
2023-01-28T15:31:34.287Z,13.06
2023-01-28T15:34:15.534Z,12.65
2023-01-28T15:36:42.930Z,12.99
2023-01-28T15:39:21.597Z,13.01
2023-01-28T15:41:57.436Z,12.73
2023-01-28T15:44:37.587Z,12.48
2023-01-28T15:47:39.118Z,12.36
2023-01-28T15:50:07.204Z,12.49
2023-01-28T15:52:40.697Z,12.61
2023-01-28T15:55:08.558Z,14.63
2023-01-28T15:57:35.636Z,14.48
2023-01-28T16:00:08.548Z,14.27
2023-01-28T16:02:49.770Z,12.90
2023-01-28T16:05:54.742Z,12.07
2023-01-28T16:08:28.288Z,12.48
2023-01-28T16:10:56.519Z,11.80
2023-01-28T16:13:25.936Z,12.62
2023-01-28T16:15:54.312Z,13.16
2023-01-28T16:18:29.858Z,11.92
2023-01-28T16:20:57.910Z,11.82
2023-01-28T16:23:27.674Z,11.99
2023-01-28T16:26:20.167Z,11.85
2023-01-28T16:28:46.989Z,15.20
2023-01-28T16:31:15.128Z,14.98
2023-01-28T16:33:41.745Z,13.29
2023-01-28T16:36:13.899Z,12.88
2023-01-28T16:38:41.005Z,13.82
2023-01-28T16:41:31.442Z,13.25
2023-01-28T16:44:02.314Z,11.97
2023-01-28T16:46:28.974Z,12.96
2023-01-28T16:48:55.486Z,12.95
2023-01-28T16:51:22.109Z,13.49
2023-01-28T16:53:50.682Z,12.08
2023-01-28T16:56:43.963Z,11.31
2023-01-28T16:59:11.790Z,13.53
2023-01-28T17:01:38.597Z,11.75
2023-01-28T17:04:11.582Z,12.23
2023-01-28T17:06:39.691Z,14.20
2023-01-28T17:09:06.510Z,13.89
2023-01-28T17:11:34.653Z,14.02
2023-01-28T17:14:02.286Z,14.03
2023-01-28T17:16:28.990Z,11.80
2023-01-28T17:18:55.622Z,12.04
2023-01-28T17:21:22.448Z,11.96
2023-01-28T17:23:51.208Z,12.68
2023-01-28T17:26:17.835Z,11.62
2023-01-28T17:28:44.472Z,10.75
2023-01-28T17:31:13.990Z,10.88
2023-01-28T17:33:41.444Z,13.08
2023-01-28T17:36:08.908Z,10.95
2023-01-28T17:38:36.011Z,10.70
2023-01-28T17:41:08.166Z,9.95
2023-01-28T17:43:35.051Z,9.93
2023-01-28T17:46:10.427Z,10.04
2023-01-28T17:48:37.041Z,10.71
2023-01-28T17:51:03.981Z,11.17
2023-01-28T17:53:30.532Z,10.53
2023-01-28T17:55:57.517Z,10.58
2023-01-28T17:58:24.190Z,10.44
2023-01-28T18:00:50.722Z,10.58
2023-01-28T18:03:17.270Z,10.74
2023-01-28T18:05:43.801Z,10.42
2023-01-28T18:08:10.315Z,10.52
2023-01-28T18:10:37.149Z,10.89
2023-01-28T18:13:03.708Z,10.94
2023-01-28T18:15:30.809Z,11.04
2023-01-28T18:17:57.343Z,10.59
2023-01-28T18:20:24.140Z,10.81
2023-01-28T18:22:50.915Z,10.13
2023-01-28T18:25:19.680Z,10.15
2023-01-28T18:27:47.820Z,10.21
2023-01-28T18:30:16.769Z,10.18
2023-01-28T18:32:43.338Z,10.04
2023-01-28T18:35:11.992Z,10.31
2023-01-28T18:37:39.882Z,10.53
2023-01-28T18:40:07.025Z,10.30
2023-01-28T18:42:33.619Z,10.34
2023-01-28T18:45:00.397Z,10.67
2023-01-28T18:47:28.425Z,10.69
2023-01-28T18:49:54.951Z,10.78
2023-01-28T18:52:21.467Z,10.33
2023-01-28T18:54:48.196Z,10.14
2023-01-28T18:57:14.700Z,10.30
2023-01-28T18:59:41.195Z,10.93
2023-01-28T19:02:13.412Z,10.24
2023-01-28T19:04:40.336Z,10.15
2023-01-28T19:07:09.863Z,10.53
2023-01-28T19:09:38.101Z,10.24
2023-01-28T19:12:05.515Z,10.55
2023-01-28T19:14:32.136Z,10.69
2023-01-28T19:16:58.876Z,10.67
2023-01-28T19:19:25.580Z,9.74
2023-01-28T19:21:52.839Z,9.49
2023-01-28T19:24:20.028Z,9.67
2023-01-28T19:26:46.608Z,9.66
2023-01-28T19:29:15.936Z,9.56
2023-01-28T19:31:44.349Z,9.41
2023-01-28T19:34:11.525Z,10.02
2023-01-28T19:36:38.910Z,9.86
2023-01-28T19:39:08.589Z,9.68
2023-01-28T19:41:36.030Z,9.72
2023-01-28T19:44:03.465Z,9.75
2023-01-28T19:46:30.225Z,10.01
2023-01-28T19:48:57.153Z,10.19
2023-01-28T19:51:24.474Z,10.60
2023-01-28T19:53:52.841Z,10.76
2023-01-28T19:56:21.064Z,10.46
2023-01-28T19:58:47.897Z,10.22
2023-01-28T20:01:17.970Z,9.99
2023-01-28T20:03:45.742Z,10.35
2023-01-28T20:06:15.269Z,10.62
2023-01-28T20:08:43.218Z,10.39
2023-01-28T20:11:14.897Z,10.50
2023-01-28T20:13:43.981Z,10.64
2023-01-28T20:16:23.998Z,11.17
2023-01-28T20:18:52.682Z,10.64
2023-01-28T20:21:20.408Z,10.96
2023-01-28T20:23:49.205Z,10.64
2023-01-28T20:26:16.903Z,10.98
2023-01-28T20:28:43.492Z,11.70
2023-01-28T20:31:10.887Z,11.15
2023-01-28T20:33:38.217Z,10.83
2023-01-28T20:36:08.009Z,10.73
2023-01-28T20:38:35.618Z,10.32
2023-01-28T20:41:10.457Z,10.33
2023-01-28T20:43:38.531Z,10.41
2023-01-28T20:46:07.749Z,10.18
2023-01-28T20:48:34.712Z,10.70
2023-01-28T20:51:09.621Z,10.12
2023-01-28T20:53:37.128Z,10.13
2023-01-28T20:56:04.230Z,10.08
2023-01-28T20:58:31.819Z,9.77
2023-01-28T21:00:58.391Z,10.17
2023-01-28T21:03:25.466Z,11.70
2023-01-28T21:05:52.355Z,10.12
2023-01-28T21:08:19.154Z,10.89
2023-01-28T21:10:46.195Z,10.20
2023-01-28T21:13:14.043Z,9.86
2023-01-28T21:15:40.785Z,10.02
2023-01-28T21:18:07.441Z,9.59
2023-01-28T21:20:34.021Z,9.64
2023-01-28T21:23:01.335Z,9.64
2023-01-28T21:25:28.033Z,9.81
2023-01-28T21:27:55.111Z,9.86
2023-01-28T21:30:21.879Z,9.66
2023-01-28T21:32:48.381Z,9.66
2023-01-28T21:35:14.983Z,10.22
2023-01-28T21:37:46.087Z,9.74
2023-01-28T21:40:12.696Z,9.79
2023-01-28T21:42:39.208Z,9.94
2023-01-28T21:45:06.463Z,9.95
2023-01-28T21:47:32.986Z,10.05
2023-01-28T21:50:00.648Z,10.24
2023-01-28T21:52:27.614Z,10.39
2023-01-28T21:54:54.149Z,10.49
2023-01-28T21:57:20.669Z,10.17
2023-01-28T21:59:47.168Z,10.21
2023-01-28T22:02:14.759Z,10.36
2023-01-28T22:04:43.591Z,10.11
2023-01-28T22:07:12.536Z,10.38
2023-01-28T22:09:39.986Z,10.74
2023-01-28T22:12:08.047Z,12.04
2023-01-28T22:14:39.274Z,10.74
2023-01-28T22:17:08.910Z,10.50
2023-01-28T22:19:35.467Z,10.58
2023-01-28T22:22:01.966Z,10.27
2023-01-28T22:24:29.004Z,10.27
2023-01-28T22:26:55.971Z,10.47
2023-01-28T22:29:24.932Z,10.61
2023-01-28T22:31:53.646Z,10.77
2023-01-28T22:34:21.202Z,10.51
2023-01-28T22:36:49.452Z,10.46
2023-01-28T22:39:16.710Z,10.51
2023-01-28T22:41:44.378Z,10.72
2023-01-28T22:44:11.056Z,10.90
2023-01-28T22:46:37.918Z,10.83
2023-01-28T22:49:05.545Z,10.71
2023-01-28T22:51:34.504Z,10.89
2023-01-28T22:54:01.905Z,11.03
2023-01-28T22:56:29.661Z,10.73
2023-01-28T22:58:58.146Z,10.64
2023-01-28T23:01:25.217Z,10.46
2023-01-28T23:03:52.860Z,10.19
2023-01-28T23:06:21.678Z,10.34
2023-01-28T23:08:48.697Z,10.63
2023-01-28T23:11:24.858Z,10.15
2023-01-28T23:14:11.702Z,11.23
2023-01-28T23:16:56.976Z,10.69
2023-01-28T23:19:42.128Z,10.66
2023-01-28T23:22:33.241Z,10.43
2023-01-28T23:25:00.415Z,10.37
2023-01-28T23:27:27.157Z,10.54
2023-01-28T23:29:53.699Z,10.46
2023-01-28T23:32:21.260Z,10.52
2023-01-28T23:34:47.798Z,10.77
2023-01-28T23:37:14.856Z,11.16
2023-01-28T23:39:42.340Z,11.19
2023-01-28T23:42:14.522Z,10.49
2023-01-28T23:44:41.313Z,10.42
2023-01-28T23:47:08.673Z,11.55
2023-01-28T23:49:35.437Z,11.17
2023-01-28T23:52:03.938Z,10.70
2023-01-28T23:54:31.487Z,10.04
2023-01-28T23:56:58.678Z,10.49
2023-01-28T23:59:25.244Z,10.30
